createdAt,value
2022-08-28T00:01:12.259Z,6.03
2022-08-28T00:03:43.669Z,6.23
2022-08-28T00:06:12.671Z,6.60
2022-08-28T00:08:43.015Z,7.20
2022-08-28T00:11:10.488Z,6.50
2022-08-28T00:13:38.373Z,6.20
2022-08-28T00:16:06.518Z,7.07
2022-08-28T00:18:34.064Z,7.17
2022-08-28T00:21:01.858Z,7.00
2022-08-28T00:23:42.353Z,7.00
2022-08-28T00:26:32.427Z,6.70
2022-08-28T00:29:00.264Z,6.53
2022-08-28T00:31:27.900Z,6.70
2022-08-28T00:33:55.238Z,6.80
2022-08-28T00:36:24.077Z,6.90
2022-08-28T00:38:51.432Z,6.65
2022-08-28T00:41:18.761Z,6.50
2022-08-28T00:44:16.353Z,6.40
2022-08-28T00:46:46.056Z,6.40
2022-08-28T00:49:17.220Z,6.57
2022-08-28T00:52:03.855Z,5.70
2022-08-28T00:54:35.300Z,6.13
2022-08-28T00:57:06.854Z,6.43
2022-08-28T00:59:35.010Z,5.50
2022-08-28T01:02:02.533Z,6.47
2022-08-28T01:04:32.520Z,6.97
2022-08-28T01:07:05.466Z,6.70
2022-08-28T01:09:35.610Z,6.77
2022-08-28T01:12:08.470Z,6.57
2022-08-28T01:14:39.328Z,6.60
2022-08-28T01:17:08.894Z,6.43
2022-08-28T01:19:40.544Z,6.57
2022-08-28T01:22:37.029Z,6.00
2022-08-28T01:25:14.540Z,6.20
2022-08-28T01:27:42.900Z,5.70
2022-08-28T01:30:16.405Z,6.13
2022-08-28T01:32:49.815Z,6.40
2022-08-28T01:35:20.572Z,6.57
2022-08-28T01:37:48.781Z,6.23
2022-08-28T01:40:23.062Z,5.83
2022-08-28T01:42:50.966Z,6.40
2022-08-28T01:45:20.739Z,6.83
2022-08-28T01:47:48.813Z,6.63
2022-08-28T01:50:21.089Z,6.67
2022-08-28T01:55:16.026Z,7.03
2022-08-28T01:57:51.370Z,6.73
2022-08-28T02:00:19.022Z,7.33
2022-08-28T02:02:48.564Z,7.27
2022-08-28T02:05:15.892Z,7.07
2022-08-28T02:07:43.217Z,5.90
2022-08-28T02:10:12.158Z,7.30
2022-08-28T02:12:39.557Z,5.90
2022-08-28T02:15:08.112Z,6.83
2022-08-28T02:17:35.892Z,6.68
2022-08-28T02:20:05.673Z,6.50
2022-08-28T02:22:33.754Z,6.17
2022-08-28T02:25:02.262Z,7.47
2022-08-28T02:27:29.859Z,6.82
2022-08-28T02:29:58.912Z,5.97
2022-08-28T02:32:27.043Z,5.70
2022-08-28T02:34:54.898Z,6.07
2022-08-28T02:37:23.696Z,6.77
2022-08-28T02:39:55.372Z,6.73
2022-08-28T02:42:23.105Z,6.20
2022-08-28T02:44:51.009Z,6.80
2022-08-28T02:47:21.552Z,7.50
2022-08-28T02:49:49.163Z,6.53
2022-08-28T02:52:18.288Z,6.57
2022-08-28T02:54:46.963Z,7.30
2022-08-28T02:57:14.444Z,6.93
2022-08-28T02:59:43.586Z,7.67
2022-08-28T03:02:11.214Z,6.68
2022-08-28T03:04:39.225Z,7.03
2022-08-28T03:07:13.675Z,6.45
2022-08-28T03:09:41.842Z,6.83
2022-08-28T03:12:10.937Z,6.10
2022-08-28T03:14:38.351Z,5.93
2022-08-28T03:17:07.639Z,5.97
2022-08-28T03:19:35.891Z,7.10
2022-08-28T03:22:03.331Z,6.97
2022-08-28T03:24:30.734Z,5.93
2022-08-28T03:26:58.647Z,6.90
2022-08-28T03:29:26.029Z,6.07
2022-08-28T03:31:53.532Z,7.03
2022-08-28T03:34:21.347Z,6.33
2022-08-28T03:36:48.735Z,6.97
2022-08-28T03:39:16.143Z,6.13
2022-08-28T03:41:43.874Z,6.70
2022-08-28T03:44:11.178Z,6.23
2022-08-28T03:46:39.158Z,6.27
2022-08-28T03:49:06.887Z,6.62
2022-08-28T03:51:35.339Z,6.93
2022-08-28T03:54:03.623Z,7.90
2022-08-28T03:56:31.959Z,6.85
2022-08-28T03:59:02.563Z,7.35
2022-08-28T04:01:30.022Z,7.13
2022-08-28T04:03:57.803Z,7.03
2022-08-28T04:06:25.412Z,7.03
2022-08-28T04:08:52.771Z,7.23
2022-08-28T04:11:20.792Z,6.40
2022-08-28T04:13:48.273Z,7.57
2022-08-28T04:16:19.189Z,6.43
2022-08-28T04:18:49.384Z,6.87
2022-08-28T04:21:20.374Z,7.40
2022-08-28T04:23:48.549Z,6.40
2022-08-28T04:26:19.920Z,6.90
2022-08-28T04:28:48.461Z,7.10
2022-08-28T04:31:17.251Z,7.65
2022-08-28T04:33:45.854Z,6.63
2022-08-28T04:36:16.932Z,6.50
2022-08-28T04:38:44.645Z,6.77
2022-08-28T04:41:14.749Z,6.93
2022-08-28T04:43:43.588Z,6.63
2022-08-28T04:46:13.876Z,7.32
2022-08-28T04:48:42.415Z,6.23
2022-08-28T04:51:12.449Z,6.70
2022-08-28T04:53:40.109Z,6.43
2022-08-28T04:56:10.202Z,6.27
2022-08-28T04:58:38.858Z,6.20
2022-08-28T05:01:08.801Z,5.97
2022-08-28T05:03:36.748Z,7.77
2022-08-28T05:06:05.032Z,7.33
2022-08-28T05:08:32.947Z,7.75
2022-08-28T05:11:14.465Z,7.90
2022-08-28T05:14:04.775Z,7.87
2022-08-28T05:16:34.794Z,7.17
2022-08-28T05:19:03.274Z,7.47
2022-08-28T05:21:30.689Z,6.50
2022-08-28T05:23:59.322Z,7.80
2022-08-28T05:26:29.661Z,7.28
2022-08-28T05:28:59.507Z,8.80
2022-08-28T05:33:55.603Z,7.22
2022-08-28T05:36:25.929Z,7.72
2022-08-28T05:39:02.350Z,8.00
2022-08-28T05:41:31.586Z,7.57
2022-08-28T05:44:05.596Z,8.00
2022-08-28T05:46:33.689Z,8.17
2022-08-28T05:49:01.079Z,10.10
2022-08-28T05:51:28.837Z,7.90
2022-08-28T05:53:57.931Z,8.45
2022-08-28T05:56:30.065Z,7.10
2022-08-28T05:59:00.219Z,7.90
2022-08-28T06:01:29.934Z,7.78
2022-08-28T06:04:00.955Z,8.20
2022-08-28T06:06:31.469Z,8.13
2022-08-28T06:09:29.024Z,8.20
2022-08-28T06:11:59.418Z,7.90
2022-08-28T06:14:27.668Z,8.43
2022-08-28T06:16:56.884Z,9.20
2022-08-28T06:19:27.053Z,7.53
2022-08-28T06:22:00.624Z,8.95
2022-08-28T06:24:30.436Z,6.93
2022-08-28T06:26:59.741Z,7.80
2022-08-28T06:31:58.704Z,8.35
2022-08-28T06:34:27.640Z,8.00
2022-08-28T06:36:55.786Z,8.65
2022-08-28T06:39:23.882Z,8.27
2022-08-28T06:41:52.583Z,8.68
2022-08-28T06:44:21.589Z,8.20
2022-08-28T06:46:51.625Z,9.07
2022-08-28T06:49:19.740Z,7.25
2022-08-28T06:51:47.135Z,8.02
2022-08-28T06:54:22.211Z,8.75
2022-08-28T06:56:54.380Z,8.95
2022-08-28T06:59:21.861Z,8.65
2022-08-28T07:01:49.570Z,8.60
2022-08-28T07:04:17.477Z,8.55
2022-08-28T07:06:47.143Z,7.68
2022-08-28T07:09:15.860Z,8.55
2022-08-28T07:11:46.904Z,9.37
2022-08-28T07:14:14.321Z,8.05
2022-08-28T07:16:41.972Z,8.30
2022-08-28T07:19:12.889Z,7.75
2022-08-28T07:21:43.156Z,7.93
2022-08-28T07:24:14.879Z,8.05
2022-08-28T07:26:43.809Z,8.60
2022-08-28T07:29:12.246Z,7.72
2022-08-28T07:31:45.542Z,8.63
2022-08-28T07:34:14.297Z,9.55
2022-08-28T07:36:42.742Z,8.00
2022-08-28T07:39:12.095Z,7.47
2022-08-28T07:41:43.106Z,7.72
2022-08-28T07:44:31.536Z,7.32
2022-08-28T07:47:04.347Z,7.75
2022-08-28T07:49:33.990Z,6.97
2022-08-28T07:52:03.036Z,7.15
2022-08-28T07:56:57.743Z,7.43
2022-08-28T07:59:25.371Z,6.72
2022-08-28T08:01:53.672Z,7.00
2022-08-28T08:04:23.011Z,7.07
2022-08-28T08:06:57.014Z,7.03
2022-08-28T08:09:27.236Z,7.55
2022-08-28T08:11:56.861Z,7.28
2022-08-28T08:14:25.174Z,6.78
2022-08-28T08:16:53.830Z,7.45
2022-08-28T08:19:21.662Z,7.70
2022-08-28T08:21:54.912Z,6.28
2022-08-28T08:24:28.659Z,7.43
2022-08-28T08:27:00.804Z,7.57
2022-08-28T08:29:36.054Z,7.20
2022-08-28T08:32:07.284Z,7.82
2022-08-28T08:34:38.883Z,7.72
2022-08-28T08:37:07.175Z,6.53
2022-08-28T08:39:36.559Z,7.28
2022-08-28T08:42:09.013Z,6.62
2022-08-28T08:44:42.538Z,7.37
2022-08-28T08:47:24.861Z,6.45
2022-08-28T08:50:17.165Z,5.97
2022-08-28T08:52:44.504Z,6.65
2022-08-28T08:55:32.243Z,6.28
2022-08-28T08:58:06.828Z,5.85
2022-08-28T09:00:59.300Z,6.22
2022-08-28T09:03:55.130Z,7.25
2022-08-28T09:06:52.713Z,5.90
2022-08-28T09:09:41.118Z,7.35
2022-08-28T09:12:17.408Z,5.45
2022-08-28T09:15:10.380Z,6.95
2022-08-28T09:17:51.680Z,5.97
2022-08-28T09:20:32.312Z,6.15
2022-08-28T09:23:02.094Z,7.47
2022-08-28T09:25:44.754Z,6.37
2022-08-28T09:28:18.672Z,5.18
2022-08-28T09:30:59.693Z,5.20
2022-08-28T09:33:37.651Z,5.40
2022-08-28T09:36:37.125Z,7.15
2022-08-28T09:39:17.692Z,6.43
2022-08-28T09:42:37.028Z,5.57
2022-08-28T09:45:21.946Z,5.40
2022-08-28T09:47:52.924Z,5.37
2022-08-28T09:50:32.859Z,5.87
2022-08-28T09:53:22.063Z,5.95
2022-08-28T09:56:08.427Z,5.78
2022-08-28T09:58:39.528Z,5.15
2022-08-28T10:01:24.767Z,7.30
2022-08-28T10:04:11.648Z,5.40
2022-08-28T10:06:40.402Z,5.60
2022-08-28T10:09:31.819Z,5.45
2022-08-28T10:12:37.885Z,4.93
2022-08-28T10:15:18.241Z,5.65
2022-08-28T10:18:14.449Z,5.47
2022-08-28T10:20:56.628Z,5.65
2022-08-28T10:23:42.685Z,5.82
2022-08-28T10:26:16.304Z,5.47
2022-08-28T10:28:49.653Z,5.78
2022-08-28T10:31:25.784Z,5.37
2022-08-28T10:34:16.479Z,6.18
2022-08-28T10:36:50.250Z,5.07
2022-08-28T10:39:34.983Z,4.95
2022-08-28T10:42:06.166Z,4.82
2022-08-28T10:44:49.996Z,5.03
2022-08-28T10:47:20.350Z,5.78
2022-08-28T10:49:53.540Z,6.30
2022-08-28T10:52:32.733Z,6.47
2022-08-28T10:55:21.780Z,6.07
2022-08-28T10:57:57.808Z,5.35
2022-08-28T11:00:27.670Z,5.87
2022-08-28T11:03:03.068Z,5.37
2022-08-28T11:05:39.682Z,5.30
2022-08-28T11:08:26.357Z,6.05
2022-08-28T11:10:55.698Z,5.20
2022-08-28T11:13:41.469Z,5.07
2022-08-28T11:16:18.950Z,5.68
2022-08-28T11:19:10.119Z,5.80
2022-08-28T11:22:09.980Z,4.97
2022-08-28T11:24:47.734Z,6.05
2022-08-28T11:27:19.519Z,5.12
2022-08-28T11:30:26.106Z,5.85
2022-08-28T11:32:53.625Z,5.78
2022-08-28T11:35:21.310Z,4.78
2022-08-28T11:37:55.069Z,5.50
2022-08-28T11:40:48.507Z,5.30
2022-08-28T11:43:16.505Z,6.53
2022-08-28T11:45:47.698Z,5.25
2022-08-28T11:48:39.895Z,5.25
2022-08-28T11:51:33.160Z,5.85
2022-08-28T11:54:21.039Z,5.18
2022-08-28T11:57:08.030Z,5.10
2022-08-28T11:59:55.306Z,5.25
2022-08-28T12:02:39.312Z,5.72
2022-08-28T12:05:30.434Z,4.97
2022-08-28T12:07:59.754Z,5.18
2022-08-28T12:10:30.977Z,4.60
2022-08-28T12:13:01.078Z,5.90
2022-08-28T12:15:28.920Z,5.20
2022-08-28T12:18:36.707Z,5.28
2022-08-28T12:21:08.710Z,5.00
2022-08-28T12:23:40.568Z,4.90
2022-08-28T12:26:24.385Z,5.75
2022-08-28T12:29:03.038Z,5.32
2022-08-28T12:32:12.846Z,5.43
2022-08-28T12:34:58.855Z,5.07
2022-08-28T12:37:43.979Z,4.85
2022-08-28T12:40:38.274Z,5.03
2022-08-28T12:43:11.510Z,5.30
2022-08-28T12:45:57.195Z,5.05
2022-08-28T12:48:27.883Z,5.57
2022-08-28T12:51:08.122Z,5.30
2022-08-28T12:53:43.574Z,5.43
2022-08-28T12:56:17.145Z,6.00
2022-08-28T12:58:46.276Z,5.00
2022-08-28T13:01:23.913Z,6.03
2022-08-28T13:03:55.336Z,5.90
2022-08-28T13:06:33.067Z,5.47
2022-08-28T13:09:04.476Z,4.60
2022-08-28T13:11:38.870Z,5.53
2022-08-28T13:14:08.235Z,5.05
2022-08-28T13:16:45.638Z,5.60
2022-08-28T13:19:29.383Z,5.60
2022-08-28T13:22:01.976Z,4.45
2022-08-28T13:24:35.669Z,5.20
2022-08-28T13:27:12.525Z,5.62
2022-08-28T13:29:57.380Z,5.40
2022-08-28T13:32:28.400Z,5.10
2022-08-28T13:35:08.358Z,4.97
2022-08-28T13:37:48.244Z,5.43
2022-08-28T13:40:53.265Z,4.78
2022-08-28T13:43:11.225Z,5.47
2022-08-28T13:45:44.105Z,5.45
2022-08-28T13:48:14.666Z,5.30
2022-08-28T13:50:51.687Z,6.05
2022-08-28T13:53:20.935Z,5.97
2022-08-28T13:55:50.618Z,5.03
2022-08-28T13:58:18.581Z,5.32
2022-08-28T14:00:48.784Z,5.40
2022-08-28T14:03:35.872Z,6.18
2022-08-28T14:06:13.294Z,5.55
2022-08-28T14:08:43.576Z,5.62
2022-08-28T14:11:13.391Z,6.37
2022-08-28T14:13:46.872Z,6.72
2022-08-28T14:16:25.191Z,6.68
2022-08-28T14:18:53.966Z,5.50
2022-08-28T14:23:55.548Z,6.12
2022-08-28T14:26:23.350Z,6.85
2022-08-28T14:28:50.978Z,7.03
2022-08-28T14:31:18.791Z,6.55
2022-08-28T14:33:47.198Z,6.70
2022-08-28T14:36:16.624Z,6.20
2022-08-28T14:38:44.562Z,6.40
2022-08-28T14:41:14.934Z,6.87
2022-08-28T14:43:42.668Z,6.93
2022-08-28T14:46:19.840Z,7.22
2022-08-28T14:48:48.282Z,6.35
2022-08-28T14:53:44.966Z,5.53
2022-08-28T14:56:12.645Z,5.53
2022-08-28T14:58:40.087Z,7.35
2022-08-28T15:01:07.832Z,5.00
2022-08-28T15:03:36.317Z,5.43
2022-08-28T15:06:09.863Z,5.00
2022-08-28T15:08:38.368Z,5.70
2022-08-28T15:11:08.039Z,5.20
2022-08-28T15:13:35.656Z,5.50
2022-08-28T15:16:15.482Z,5.12
2022-08-28T15:18:45.690Z,5.60
2022-08-28T15:21:24.832Z,5.00
2022-08-28T15:23:57.935Z,5.07
2022-08-28T15:26:27.351Z,5.53
2022-08-28T15:28:58.419Z,6.28
2022-08-28T15:31:26.496Z,5.07
2022-08-28T15:33:54.889Z,5.43
2022-08-28T15:36:22.309Z,5.78
2022-08-28T15:41:38.163Z,4.90
2022-08-28T15:44:06.076Z,5.65
2022-08-28T15:46:35.202Z,5.97
2022-08-28T15:49:05.219Z,5.72
2022-08-28T15:51:36.197Z,5.12
2022-08-28T15:54:03.693Z,5.00
2022-08-28T15:56:31.122Z,5.20
2022-08-28T15:58:58.786Z,6.20
2022-08-28T16:01:26.281Z,6.07
2022-08-28T16:03:54.061Z,6.40
2022-08-28T16:06:22.627Z,6.20
2022-08-28T16:08:50.370Z,6.60
2022-08-28T16:11:20.845Z,5.22
2022-08-28T16:13:48.727Z,6.05
2022-08-28T16:16:17.057Z,6.78
2022-08-28T16:18:45.159Z,6.80
2022-08-28T16:21:14.154Z,7.72
2022-08-28T16:23:42.165Z,7.43
2022-08-28T16:28:38.578Z,8.18
2022-08-28T16:31:07.540Z,9.02
2022-08-28T16:33:46.820Z,9.15
2022-08-28T16:36:15.869Z,7.53
2022-08-28T16:38:46.755Z,7.75
2022-08-28T16:41:22.064Z,7.53
2022-08-28T16:43:50.565Z,7.70
2022-08-28T16:46:22.317Z,8.27
2022-08-28T16:48:49.773Z,6.90
2022-08-28T16:51:20.969Z,7.15
2022-08-28T16:53:48.450Z,8.98
2022-08-28T16:56:17.855Z,8.63
2022-08-28T16:58:45.717Z,8.25
2022-08-28T17:01:13.882Z,7.53
2022-08-28T17:06:30.678Z,9.65
2022-08-28T17:11:27.257Z,9.10
2022-08-28T17:13:55.567Z,9.77
2022-08-28T17:16:24.283Z,11.18
2022-08-28T17:18:52.940Z,11.05
2022-08-28T17:21:41.233Z,9.52
2022-08-28T17:24:12.707Z,10.40
2022-08-28T17:26:41.548Z,8.98
2022-08-28T17:29:09.550Z,9.70
2022-08-28T17:31:37.420Z,9.57
2022-08-28T17:34:07.403Z,8.50
2022-08-28T17:36:37.544Z,7.57
2022-08-28T17:39:08.681Z,7.90
2022-08-28T17:41:37.081Z,9.15
2022-08-28T17:44:05.280Z,8.73
2022-08-28T17:46:37.700Z,8.60
2022-08-28T17:49:08.014Z,8.57
2022-08-28T17:51:42.643Z,8.50
2022-08-28T17:54:13.482Z,10.02
2022-08-28T17:56:41.868Z,9.65
2022-08-28T17:59:11.993Z,8.23
2022-08-28T18:01:41.204Z,10.95
2022-08-28T18:04:09.252Z,10.20
2022-08-28T18:06:37.380Z,8.80
2022-08-28T18:09:06.325Z,9.50
2022-08-28T18:11:34.442Z,9.32
2022-08-28T18:14:01.892Z,8.88
2022-08-28T18:16:32.553Z,8.32
2022-08-28T18:19:02.046Z,7.95
2022-08-28T18:21:30.575Z,7.97
2022-08-28T18:23:58.281Z,8.60
2022-08-28T18:26:26.483Z,9.75
2022-08-28T18:28:54.105Z,9.25
2022-08-28T18:31:22.291Z,8.45
2022-08-28T18:36:18.127Z,8.65
2022-08-28T18:38:47.420Z,8.48
2022-08-28T18:41:16.067Z,9.93
2022-08-28T18:43:43.634Z,9.30
2022-08-28T18:46:12.416Z,8.63
2022-08-28T18:48:42.654Z,9.43
2022-08-28T18:51:12.427Z,8.65
2022-08-28T18:53:43.450Z,8.43
2022-08-28T18:56:12.476Z,8.07
2022-08-28T18:58:43.247Z,8.63
2022-08-28T19:01:10.879Z,8.40
2022-08-28T19:03:38.855Z,8.50
2022-08-28T19:06:06.819Z,10.18
2022-08-28T19:08:37.940Z,9.13
2022-08-28T19:11:10.715Z,10.05
2022-08-28T19:13:38.330Z,9.57
2022-08-28T19:16:06.472Z,9.18
2022-08-28T19:18:34.212Z,10.53
2022-08-28T19:21:10.728Z,9.13
2022-08-28T19:23:53.864Z,9.65
2022-08-28T19:26:23.292Z,8.55
2022-08-28T19:38:30.917Z,8.40
2022-08-28T19:45:26.264Z,10.35
2022-08-28T19:48:10.310Z,10.10
2022-08-28T19:56:56.869Z,10.48
2022-08-28T19:59:27.211Z,8.97
2022-08-28T20:01:57.318Z,9.63
2022-08-28T20:07:06.967Z,9.27
2022-08-28T20:09:48.122Z,11.18
2022-08-28T20:15:01.374Z,10.10
2022-08-28T20:17:32.093Z,9.65
2022-08-28T20:20:03.576Z,10.07
2022-08-28T20:22:32.152Z,10.52
2022-08-28T20:27:28.098Z,10.45
2022-08-28T20:29:55.511Z,10.40
2022-08-28T20:32:23.234Z,10.38
2022-08-28T20:34:50.667Z,11.10
2022-08-28T20:37:19.651Z,10.50
2022-08-28T20:39:47.527Z,9.48
2022-08-28T20:42:14.973Z,10.15
2022-08-28T20:44:42.560Z,9.57
2022-08-28T20:47:10.299Z,9.70
2022-08-28T20:49:39.297Z,10.25
2022-08-28T20:52:07.081Z,10.05
2022-08-28T20:54:38.777Z,10.27
2022-08-28T20:57:11.889Z,10.43
2022-08-28T20:59:42.611Z,9.40
2022-08-28T21:02:14.744Z,9.68
2022-08-28T21:04:44.347Z,9.95
2022-08-28T21:07:13.688Z,9.63
2022-08-28T21:10:05.939Z,9.77
2022-08-28T21:12:28.997Z,10.57
2022-08-28T21:14:56.576Z,10.13
2022-08-28T21:17:29.544Z,10.27
2022-08-28T21:20:04.289Z,10.05
2022-08-28T21:22:34.577Z,10.18
2022-08-28T21:25:08.429Z,10.32
2022-08-28T21:27:38.680Z,10.00
2022-08-28T21:30:07.645Z,10.20
2022-08-28T21:32:35.696Z,10.75
2022-08-28T21:35:05.285Z,10.15
2022-08-28T21:37:36.650Z,10.30
2022-08-28T21:40:08.584Z,10.70
2022-08-28T21:42:36.933Z,10.35
2022-08-28T21:45:11.240Z,10.07
2022-08-28T21:47:41.251Z,10.32
2022-08-28T21:50:09.166Z,10.27
2022-08-28T21:52:36.628Z,9.85
2022-08-28T21:55:08.369Z,9.63
2022-08-28T21:57:36.526Z,10.13
2022-08-28T22:02:37.804Z,10.65
2022-08-28T22:05:05.798Z,10.87
2022-08-28T22:07:33.413Z,11.70
2022-08-28T22:10:00.925Z,10.45
2022-08-28T22:12:28.577Z,9.77
2022-08-28T22:14:58.394Z,9.48
2022-08-28T22:17:27.004Z,10.38
2022-08-28T22:19:57.985Z,9.68
2022-08-28T22:22:43.952Z,10.05
2022-08-28T22:25:11.625Z,9.75
2022-08-28T22:27:39.229Z,10.27
2022-08-28T22:30:07.096Z,10.48
2022-08-28T22:32:34.789Z,11.12
2022-08-28T22:35:02.241Z,10.05
2022-08-28T22:37:30.233Z,10.82
2022-08-28T22:39:59.777Z,10.25
2022-08-28T22:44:54.842Z,11.32
2022-08-28T22:47:23.031Z,10.75
2022-08-28T22:49:50.321Z,10.05
2022-08-28T22:52:17.739Z,10.18
2022-08-28T22:54:45.786Z,10.10
2022-08-28T22:57:14.572Z,9.70
2022-08-28T22:59:42.335Z,10.10
2022-08-28T23:02:12.214Z,10.48
2022-08-28T23:04:39.641Z,10.50
2022-08-28T23:07:07.030Z,11.10
2022-08-28T23:09:36.005Z,9.50
2022-08-28T23:12:07.982Z,11.05
2022-08-28T23:14:35.848Z,10.75
2022-08-28T23:17:04.147Z,10.70
2022-08-28T23:19:33.052Z,10.60
2022-08-28T23:22:01.223Z,11.02
2022-08-28T23:24:28.886Z,10.55
2022-08-28T23:26:56.235Z,10.70
2022-08-28T23:29:24.134Z,10.13
2022-08-28T23:34:34.354Z,9.98
2022-08-28T23:37:03.080Z,11.35
2022-08-28T23:39:30.972Z,10.83
2022-08-28T23:41:58.636Z,10.23
2022-08-28T23:44:25.986Z,11.05
2022-08-28T23:46:53.994Z,11.67
2022-08-28T23:49:26.712Z,11.07
2022-08-28T23:51:54.346Z,10.32
2022-08-28T23:54:22.037Z,10.50
2022-08-28T23:56:49.454Z,10.02
